createdAt,value
2019-01-10T00:00:25.100Z,1.00
2019-01-10T00:01:25.113Z,2.00
2019-01-10T00:02:25.095Z,2.90
2019-01-10T00:03:25.059Z,2.40
2019-01-10T00:04:25.047Z,2.00
2019-01-10T00:05:25.053Z,2.90
2019-01-10T00:06:25.110Z,1.50
2019-01-10T00:07:25.011Z,1.90
2019-01-10T00:08:25.007Z,2.30
2019-01-10T00:09:24.989Z,1.20
2019-01-10T00:10:25.002Z,1.50
2019-01-10T00:11:24.997Z,2.50
2019-01-10T00:12:24.987Z,1.60
2019-01-10T00:13:24.943Z,1.60
2019-01-10T00:14:25.037Z,2.90
2019-01-10T00:15:24.923Z,1.80
2019-01-10T00:16:24.956Z,1.50
2019-01-10T00:17:24.940Z,1.60
2019-01-10T00:18:25.025Z,1.60
2019-01-10T00:19:24.878Z,1.60
2019-01-10T00:20:24.989Z,2.50
2019-01-10T00:21:24.865Z,2.30
2019-01-10T00:22:24.858Z,1.40
2019-01-10T00:23:24.895Z,2.00
2019-01-10T00:24:24.823Z,2.30
2019-01-10T00:25:24.814Z,1.80
2019-01-10T00:26:24.838Z,1.30
2019-01-10T00:27:24.810Z,2.40
2019-01-10T00:28:24.835Z,1.40
2019-01-10T00:29:24.865Z,2.40
2019-01-10T00:30:24.763Z,1.40
2019-01-10T00:31:24.744Z,1.30
2019-01-10T00:32:24.753Z,2.00
2019-01-10T00:33:24.736Z,1.70
2019-01-10T00:34:24.734Z,1.60
2019-01-10T00:35:24.696Z,2.10
2019-01-10T00:36:24.690Z,2.10
2019-01-10T00:37:24.753Z,1.50
2019-01-10T00:38:24.695Z,1.30
2019-01-10T00:39:24.675Z,1.80
2019-01-10T00:40:24.670Z,2.10
2019-01-10T00:41:24.630Z,2.70
2019-01-10T00:42:24.648Z,1.80
2019-01-10T00:43:24.622Z,2.60
2019-01-10T00:44:24.593Z,2.30
2019-01-10T00:45:24.610Z,1.90
2019-01-10T00:46:24.608Z,2.00
2019-01-10T00:47:24.579Z,2.10
2019-01-10T00:48:24.576Z,2.50
2019-01-10T00:49:24.551Z,1.50
2019-01-10T00:50:24.579Z,1.60
2019-01-10T00:51:24.533Z,1.20
2019-01-10T00:52:24.517Z,2.20
2019-01-10T00:53:24.495Z,2.80
2019-01-10T00:54:24.486Z,1.60
2019-01-10T00:55:24.468Z,2.00
2019-01-10T00:56:24.511Z,1.80
2019-01-10T00:57:24.480Z,2.80
2019-01-10T00:58:24.485Z,2.00
2019-01-10T00:59:24.439Z,1.20
2019-01-10T01:00:24.417Z,1.40
2019-01-10T01:01:24.444Z,2.40
2019-01-10T01:02:24.417Z,2.20
2019-01-10T01:03:24.404Z,2.00
2019-01-10T01:04:24.391Z,1.40
2019-01-10T01:05:24.383Z,2.00
2019-01-10T01:06:24.368Z,2.70
2019-01-10T01:07:24.373Z,1.80
2019-01-10T01:08:24.336Z,2.70
2019-01-10T01:09:24.316Z,1.60
2019-01-10T01:10:24.311Z,2.10
2019-01-10T01:11:24.316Z,1.40
2019-01-10T01:12:24.306Z,1.70
2019-01-10T01:13:24.341Z,1.90
2019-01-10T01:14:24.282Z,1.40
2019-01-10T01:15:24.252Z,1.40
2019-01-10T01:16:24.273Z,2.70
2019-01-10T01:17:24.369Z,1.90
2019-01-10T01:18:24.220Z,1.70
2019-01-10T01:19:24.417Z,2.40
2019-01-10T01:20:24.219Z,1.40
2019-01-10T01:21:24.215Z,2.00
2019-01-10T01:22:24.191Z,2.00
2019-01-10T01:23:24.164Z,1.60
2019-01-10T01:24:24.168Z,1.90
2019-01-10T01:25:24.170Z,2.40
2019-01-10T01:26:24.145Z,2.00
2019-01-10T01:27:24.147Z,1.80
2019-01-10T01:28:24.115Z,1.00
2019-01-10T01:29:24.092Z,1.20
2019-01-10T01:30:24.110Z,2.20
2019-01-10T01:31:24.120Z,1.20
2019-01-10T01:32:27.956Z,1.50
2019-01-10T01:33:24.063Z,1.50
2019-01-10T01:34:24.067Z,2.40
2019-01-10T01:35:24.041Z,2.00
2019-01-10T01:36:24.032Z,2.30
2019-01-10T01:37:24.039Z,1.70
2019-01-10T01:38:24.025Z,1.80
2019-01-10T01:39:24.004Z,2.10
2019-01-10T01:40:23.970Z,2.00
2019-01-10T01:41:23.966Z,2.50
2019-01-10T01:42:23.961Z,2.20
2019-01-10T01:43:23.972Z,1.80
2019-01-10T01:44:23.950Z,1.80
2019-01-10T01:45:24.249Z,1.50
2019-01-10T01:46:23.920Z,1.80
2019-01-10T01:47:23.899Z,2.50
2019-01-10T01:48:23.909Z,1.40
2019-01-10T01:49:23.896Z,1.20
2019-01-10T01:50:23.884Z,1.10
2019-01-10T01:51:23.869Z,1.20
2019-01-10T01:52:23.847Z,2.10
2019-01-10T01:53:23.833Z,1.90
2019-01-10T01:54:23.898Z,2.10
2019-01-10T01:55:23.821Z,1.00
2019-01-10T01:56:23.866Z,3.30
2019-01-10T01:57:23.780Z,1.10
2019-01-10T01:58:23.847Z,2.20
2019-01-10T01:59:23.852Z,1.00
2019-01-10T02:00:23.758Z,1.90
2019-01-10T02:01:23.759Z,1.80
2019-01-10T02:02:23.730Z,1.60
2019-01-10T02:03:23.726Z,1.90
2019-01-10T02:04:23.729Z,1.70
2019-01-10T02:05:23.692Z,2.10
2019-01-10T02:06:23.735Z,1.70
2019-01-10T02:07:23.671Z,1.50
2019-01-10T02:08:23.655Z,2.70
2019-01-10T02:09:23.671Z,1.80
2019-01-10T02:10:23.647Z,1.70
2019-01-10T02:11:23.626Z,1.50
2019-01-10T02:12:23.621Z,1.30
2019-01-10T02:13:23.604Z,1.60
2019-01-10T02:14:23.609Z,2.00
2019-01-10T02:15:23.607Z,1.80
2019-01-10T02:16:23.600Z,1.40
2019-01-10T02:17:23.565Z,1.50
2019-01-10T02:18:23.572Z,1.80
2019-01-10T02:19:23.649Z,2.70
2019-01-10T02:20:23.547Z,2.10
2019-01-10T02:21:23.557Z,1.30
2019-01-10T02:22:23.504Z,2.00
2019-01-10T02:23:23.512Z,3.00
2019-01-10T02:24:23.489Z,1.50
2019-01-10T02:25:23.535Z,2.60
2019-01-10T02:26:23.460Z,1.60
2019-01-10T02:27:23.506Z,2.00
2019-01-10T02:28:23.469Z,1.80
2019-01-10T02:29:23.449Z,2.80
2019-01-10T02:30:23.414Z,1.50
2019-01-10T02:31:23.416Z,2.20
2019-01-10T02:32:23.394Z,1.70
2019-01-10T02:33:23.385Z,2.30
2019-01-10T02:34:23.412Z,1.60
2019-01-10T02:35:23.365Z,1.70
2019-01-10T02:36:23.349Z,2.00
2019-01-10T02:37:23.344Z,2.30
2019-01-10T02:38:23.377Z,0.90
2019-01-10T02:39:23.367Z,2.30
2019-01-10T02:40:23.351Z,1.80
2019-01-10T02:41:23.322Z,1.30
2019-01-10T02:42:23.301Z,2.30
2019-01-10T02:43:26.586Z,1.60
2019-01-10T02:44:23.294Z,1.70
2019-01-10T02:45:23.274Z,1.80
2019-01-10T02:46:23.244Z,2.40
2019-01-10T02:47:23.236Z,2.20
2019-01-10T02:48:23.237Z,1.80
2019-01-10T02:49:23.222Z,1.90
2019-01-10T02:50:23.201Z,1.30
2019-01-10T02:51:23.216Z,1.60
2019-01-10T02:52:23.186Z,1.60
2019-01-10T02:53:23.158Z,1.70
2019-01-10T02:54:23.175Z,1.90
2019-01-10T02:55:23.174Z,1.40
2019-01-10T02:56:23.120Z,1.70
2019-01-10T02:57:23.124Z,1.30
2019-01-10T02:58:23.121Z,1.10
2019-01-10T02:59:23.105Z,1.20
2019-01-10T03:00:23.142Z,2.00
2019-01-10T03:01:23.078Z,1.40
2019-01-10T03:02:23.086Z,1.50
2019-01-10T03:03:23.062Z,1.50
2019-01-10T03:04:23.066Z,2.20
2019-01-10T03:05:23.030Z,1.30
2019-01-10T03:06:23.270Z,1.20
2019-01-10T03:07:22.997Z,1.20
2019-01-10T03:08:23.103Z,2.00
2019-01-10T03:09:23.229Z,1.60
2019-01-10T03:10:22.990Z,2.20
2019-01-10T03:11:22.952Z,1.40
2019-01-10T03:12:22.955Z,1.80
2019-01-10T03:13:22.940Z,1.50
2019-01-10T03:14:22.943Z,1.10
2019-01-10T03:15:22.942Z,1.50
2019-01-10T03:16:22.916Z,1.80
2019-01-10T03:17:22.890Z,1.60
2019-01-10T03:18:22.918Z,1.90
2019-01-10T03:19:22.883Z,1.40
2019-01-10T03:20:22.916Z,0.90
2019-01-10T03:21:22.906Z,1.30
2019-01-10T03:22:22.881Z,1.90
2019-01-10T03:23:22.821Z,1.10
2019-01-10T03:24:22.837Z,1.00
2019-01-10T03:25:22.835Z,1.30
2019-01-10T03:26:22.794Z,3.10
2019-01-10T03:27:22.801Z,1.90
2019-01-10T03:28:22.781Z,1.80
2019-01-10T03:29:22.757Z,1.10
2019-01-10T03:30:22.814Z,1.90
2019-01-10T03:31:22.755Z,1.10
2019-01-10T03:32:22.727Z,1.90
2019-01-10T03:33:23.640Z,1.70
2019-01-10T03:34:22.704Z,1.60
2019-01-10T03:35:22.735Z,1.90
2019-01-10T03:36:22.682Z,1.30
2019-01-10T03:37:22.687Z,1.40
2019-01-10T03:38:22.696Z,1.40
2019-01-10T03:39:22.698Z,1.50
2019-01-10T03:40:23.272Z,1.90
2019-01-10T03:41:22.641Z,1.60
2019-01-10T03:42:22.702Z,1.40
2019-01-10T03:43:22.643Z,1.00
2019-01-10T03:44:22.592Z,1.30
2019-01-10T03:45:22.592Z,2.40
2019-01-10T03:46:22.585Z,2.00
2019-01-10T03:47:22.570Z,2.20
2019-01-10T03:48:22.547Z,1.40
2019-01-10T03:49:22.588Z,2.70
2019-01-10T03:50:22.555Z,1.50
2019-01-10T03:51:22.657Z,2.00
2019-01-10T03:52:22.552Z,0.80
2019-01-10T03:53:22.491Z,1.80
2019-01-10T03:54:22.485Z,1.00
2019-01-10T03:55:22.481Z,1.60
2019-01-10T03:56:22.467Z,1.20
2019-01-10T03:57:22.446Z,2.10
2019-01-10T03:58:22.427Z,1.60
2019-01-10T03:59:22.422Z,1.50
2019-01-10T04:00:22.539Z,1.30
2019-01-10T04:01:22.435Z,1.80
2019-01-10T04:02:22.381Z,2.10
2019-01-10T04:03:22.384Z,1.10
2019-01-10T04:04:22.364Z,1.40
2019-01-10T04:05:22.362Z,2.10
2019-01-10T04:06:22.365Z,1.20
2019-01-10T04:07:22.370Z,2.20
2019-01-10T04:08:22.329Z,1.40
2019-01-10T04:09:22.320Z,1.30
2019-01-10T04:10:22.389Z,1.70
2019-01-10T04:11:22.286Z,2.20
2019-01-10T04:12:22.277Z,2.10
2019-01-10T04:13:22.307Z,1.30
2019-01-10T04:14:22.249Z,2.20
2019-01-10T04:15:22.256Z,1.20
2019-01-10T04:16:22.232Z,1.30
2019-01-10T04:17:22.222Z,2.10
2019-01-10T04:18:22.222Z,1.60
2019-01-10T04:19:22.195Z,2.30
2019-01-10T04:20:22.195Z,1.30
2019-01-10T04:21:22.171Z,1.50
2019-01-10T04:22:22.269Z,1.50
2019-01-10T04:23:22.162Z,1.60
2019-01-10T04:24:22.141Z,1.20
2019-01-10T04:25:24.412Z,2.30
2019-01-10T04:26:22.118Z,1.30
2019-01-10T04:27:22.117Z,2.10
2019-01-10T04:28:22.096Z,1.70
2019-01-10T04:29:22.102Z,2.00
2019-01-10T04:30:22.131Z,1.10
2019-01-10T04:31:22.066Z,1.20
2019-01-10T04:32:22.074Z,1.10
2019-01-10T04:33:22.044Z,2.80
2019-01-10T04:34:22.031Z,1.90
2019-01-10T04:35:22.024Z,1.70
2019-01-10T04:36:22.054Z,1.60
2019-01-10T04:37:21.996Z,1.40
2019-01-10T04:38:21.980Z,1.30
2019-01-10T04:39:21.971Z,2.30
2019-01-10T04:40:21.986Z,1.80
2019-01-10T04:41:21.946Z,2.10
2019-01-10T04:42:21.967Z,1.80
2019-01-10T04:43:21.923Z,1.60
2019-01-10T04:44:21.923Z,1.70
2019-01-10T04:45:21.908Z,1.40
2019-01-10T04:46:21.894Z,2.00
2019-01-10T04:47:21.876Z,2.20
2019-01-10T04:48:21.879Z,2.10
2019-01-10T04:49:21.857Z,1.70
2019-01-10T04:50:21.851Z,2.60
2019-01-10T04:51:21.875Z,1.80
2019-01-10T04:52:21.819Z,2.10
2019-01-10T04:53:21.811Z,2.10
2019-01-10T04:54:21.802Z,1.40
2019-01-10T04:55:21.813Z,1.30
2019-01-10T04:56:21.810Z,1.90
2019-01-10T04:57:21.771Z,1.20
2019-01-10T04:58:21.763Z,1.90
2019-01-10T04:59:21.749Z,1.50
2019-01-10T05:00:21.769Z,1.50
2019-01-10T05:01:21.807Z,1.90
2019-01-10T05:02:21.750Z,1.50
2019-01-10T05:03:21.768Z,1.40
2019-01-10T05:04:21.715Z,2.20
2019-01-10T05:05:21.696Z,1.90
2019-01-10T05:06:21.689Z,2.50
2019-01-10T05:07:21.658Z,2.40
2019-01-10T05:08:21.648Z,0.90
2019-01-10T05:09:21.630Z,1.60
2019-01-10T05:10:21.630Z,2.00
2019-01-10T05:11:21.625Z,1.40
2019-01-10T05:12:21.600Z,1.60
2019-01-10T05:13:21.596Z,1.70
2019-01-10T05:14:21.586Z,1.70
2019-01-10T05:15:21.571Z,2.10
2019-01-10T05:16:21.572Z,1.80
2019-01-10T05:17:21.598Z,1.30
2019-01-10T05:18:21.535Z,2.00
2019-01-10T05:19:21.575Z,1.40
2019-01-10T05:20:21.528Z,1.70
2019-01-10T05:21:21.510Z,1.90
2019-01-10T05:22:21.492Z,1.80
2019-01-10T05:23:22.221Z,1.90
2019-01-10T05:24:21.542Z,1.30
2019-01-10T05:25:21.465Z,1.80
2019-01-10T05:26:21.463Z,1.40
2019-01-10T05:27:21.465Z,1.30
2019-01-10T05:28:21.439Z,2.30
2019-01-10T05:29:21.404Z,2.70
2019-01-10T05:30:21.402Z,1.30
2019-01-10T05:31:21.400Z,1.10
2019-01-10T05:32:21.399Z,2.30
2019-01-10T05:33:21.362Z,2.10
2019-01-10T05:34:21.420Z,1.60
2019-01-10T05:35:21.337Z,1.60
2019-01-10T05:36:21.342Z,1.30
2019-01-10T05:37:21.341Z,2.10
2019-01-10T05:38:21.462Z,1.60
2019-01-10T05:39:21.314Z,1.50
2019-01-10T05:40:21.286Z,1.80
2019-01-10T05:41:21.288Z,1.90
2019-01-10T05:42:21.264Z,1.80
2019-01-10T05:43:21.259Z,1.90
2019-01-10T05:44:26.475Z,1.70
2019-01-10T05:45:21.252Z,2.10
2019-01-10T05:46:21.249Z,1.40
2019-01-10T05:47:21.241Z,2.00
2019-01-10T05:48:21.242Z,1.70
2019-01-10T05:49:21.197Z,1.80
2019-01-10T05:50:21.201Z,2.50
2019-01-10T05:51:21.183Z,1.80
2019-01-10T05:52:21.166Z,1.10
2019-01-10T05:53:21.142Z,2.40
2019-01-10T05:54:21.136Z,1.60
2019-01-10T05:55:21.123Z,2.00
2019-01-10T05:56:21.167Z,2.00
2019-01-10T05:57:21.104Z,0.90
2019-01-10T05:58:21.124Z,1.70
2019-01-10T05:59:21.094Z,1.40
2019-01-10T06:00:21.062Z,0.90
2019-01-10T06:01:21.085Z,2.20
2019-01-10T06:02:21.073Z,1.30
2019-01-10T06:03:21.030Z,1.60
2019-01-10T06:04:21.019Z,2.00
2019-01-10T06:05:21.024Z,1.80
2019-01-10T06:06:21.076Z,1.90
2019-01-10T06:07:20.991Z,1.10
2019-01-10T06:08:20.979Z,1.20
2019-01-10T06:09:20.964Z,1.90
2019-01-10T06:10:20.952Z,1.70
2019-01-10T06:11:20.952Z,1.50
2019-01-10T06:12:20.936Z,1.70
2019-01-10T06:13:20.931Z,3.10
2019-01-10T06:14:20.901Z,1.30
2019-01-10T06:15:20.982Z,1.60
2019-01-10T06:16:20.891Z,2.10
2019-01-10T06:17:20.879Z,1.20
2019-01-10T06:18:20.902Z,1.10
2019-01-10T06:19:26.684Z,2.40
2019-01-10T06:20:20.841Z,1.80
2019-01-10T06:21:20.850Z,2.00
2019-01-10T06:22:20.823Z,1.90
2019-01-10T06:23:20.829Z,1.80
2019-01-10T06:24:20.817Z,2.40
2019-01-10T06:25:20.810Z,1.40
2019-01-10T06:26:20.818Z,2.80
2019-01-10T06:27:20.766Z,1.70
2019-01-10T06:28:20.748Z,2.40
2019-01-10T06:29:20.746Z,1.30
2019-01-10T06:30:20.744Z,1.00
2019-01-10T06:31:20.759Z,2.00
2019-01-10T06:32:20.733Z,1.70
2019-01-10T06:33:20.693Z,1.90
2019-01-10T06:34:20.788Z,1.90
2019-01-10T06:35:20.676Z,1.60
2019-01-10T06:36:20.661Z,2.10
2019-01-10T06:37:20.660Z,1.60
2019-01-10T06:38:20.686Z,2.50
2019-01-10T06:39:20.630Z,2.00
2019-01-10T06:40:20.625Z,1.50
2019-01-10T06:41:20.609Z,1.60
2019-01-10T06:42:20.612Z,2.40
2019-01-10T06:43:20.825Z,1.70
2019-01-10T06:44:21.598Z,1.10
2019-01-10T06:45:22.536Z,3.60
2019-01-10T06:46:20.755Z,2.90
2019-01-10T06:47:20.546Z,2.90
2019-01-10T06:48:20.688Z,2.60
2019-01-10T06:49:20.527Z,1.50
2019-01-10T06:50:20.526Z,2.70
2019-01-10T06:51:20.502Z,2.60
2019-01-10T06:52:20.531Z,2.20
2019-01-10T06:53:20.478Z,2.20
2019-01-10T06:54:20.465Z,1.40
2019-01-10T06:55:20.562Z,2.50
2019-01-10T06:56:20.522Z,1.80
2019-01-10T06:57:20.440Z,1.70
2019-01-10T06:58:20.422Z,2.00
2019-01-10T06:59:20.420Z,2.70
2019-01-10T07:00:20.395Z,2.50
2019-01-10T07:01:20.388Z,2.50
2019-01-10T07:02:20.415Z,3.10
2019-01-10T07:03:20.374Z,4.00
2019-01-10T07:04:20.419Z,3.70
2019-01-10T07:05:20.350Z,4.90
2019-01-10T07:06:20.342Z,4.70
2019-01-10T07:07:20.334Z,4.00
2019-01-10T07:08:20.328Z,4.30
2019-01-10T07:09:20.289Z,4.20
2019-01-10T07:10:20.318Z,3.60
2019-01-10T07:11:20.859Z,2.30
2019-01-10T07:12:20.278Z,3.00
2019-01-10T07:13:20.278Z,3.60
2019-01-10T07:14:20.235Z,5.80
2019-01-10T07:15:20.238Z,2.20
2019-01-10T07:16:20.227Z,5.20
2019-01-10T07:17:20.315Z,3.80
2019-01-10T07:18:20.203Z,4.80
2019-01-10T07:19:20.181Z,7.00
2019-01-10T07:20:20.181Z,7.10
2019-01-10T07:21:20.176Z,5.40
2019-01-10T07:22:20.233Z,3.90
2019-01-10T07:23:23.977Z,4.90
2019-01-10T07:24:21.222Z,5.20
2019-01-10T07:25:23.116Z,3.50
2019-01-10T07:26:20.103Z,5.40
2019-01-10T07:27:20.096Z,3.20
2019-01-10T07:28:20.119Z,5.60
2019-01-10T07:29:20.077Z,4.90
2019-01-10T07:30:20.066Z,6.80
2019-01-10T07:31:20.134Z,5.50
2019-01-10T07:32:20.069Z,11.80
2019-01-10T07:33:20.033Z,6.10
2019-01-10T07:34:20.017Z,6.80
2019-01-10T07:35:20.028Z,4.30
2019-01-10T07:36:19.993Z,4.00
2019-01-10T07:37:19.994Z,9.10
2019-01-10T07:38:19.981Z,5.00
2019-01-10T07:39:19.979Z,7.20
2019-01-10T07:40:20.009Z,10.50
2019-01-10T07:41:19.945Z,7.90
2019-01-10T07:42:19.984Z,7.50
2019-01-10T07:43:19.956Z,9.70
2019-01-10T07:44:19.938Z,9.40
2019-01-10T07:45:19.900Z,6.40
2019-01-10T07:46:19.893Z,10.20
2019-01-10T07:47:19.959Z,7.70
2019-01-10T07:48:19.927Z,8.50
2019-01-10T07:49:21.605Z,7.40
2019-01-10T07:50:19.895Z,10.90
2019-01-10T07:51:19.914Z,7.80
2019-01-10T07:52:19.897Z,8.70
2019-01-10T07:53:19.886Z,7.70
2019-01-10T07:54:19.792Z,6.60
2019-01-10T07:55:20.892Z,11.40
2019-01-10T07:56:19.767Z,6.70
2019-01-10T07:57:19.759Z,8.90
2019-01-10T07:58:22.133Z,8.60
2019-01-10T07:59:19.751Z,7.20
2019-01-10T08:00:19.730Z,9.30
2019-01-10T08:01:19.715Z,9.20
2019-01-10T08:02:19.749Z,8.10
2019-01-10T08:03:19.723Z,7.80
2019-01-10T08:04:19.676Z,6.70
2019-01-10T08:05:19.706Z,8.40
2019-01-10T08:06:19.725Z,11.10
2019-01-10T08:07:19.664Z,5.90
2019-01-10T08:08:19.703Z,7.60
2019-01-10T08:09:19.651Z,11.30
2019-01-10T08:10:19.643Z,10.10
2019-01-10T08:11:19.668Z,9.80
2019-01-10T08:12:19.722Z,9.30
2019-01-10T08:13:19.718Z,9.60
2019-01-10T08:14:19.635Z,7.90
2019-01-10T08:15:19.608Z,7.90
2019-01-10T08:16:19.547Z,7.10
2019-01-10T08:17:19.593Z,8.50
2019-01-10T08:18:19.611Z,7.00
2019-01-10T08:19:19.587Z,10.80
2019-01-10T08:20:19.558Z,7.30
2019-01-10T08:21:19.560Z,7.20
2019-01-10T08:22:27.485Z,10.80
2019-01-10T08:23:19.524Z,5.10
2019-01-10T08:24:19.523Z,9.40
2019-01-10T08:25:19.492Z,7.70
2019-01-10T08:26:19.440Z,7.40
2019-01-10T08:27:19.428Z,9.60
2019-01-10T08:28:19.514Z,10.80
2019-01-10T08:29:18.761Z,8.60
2019-01-10T08:30:19.379Z,7.50
2019-01-10T08:31:19.393Z,9.30
2019-01-10T08:32:19.361Z,7.90
2019-01-10T08:33:19.391Z,7.90
2019-01-10T08:34:19.334Z,7.90
2019-01-10T08:35:19.407Z,8.90
2019-01-10T08:36:19.352Z,7.40
2019-01-10T08:37:21.646Z,18.60
2019-01-10T08:38:19.315Z,8.10
2019-01-10T08:39:19.851Z,12.80
2019-01-10T08:40:19.289Z,6.10
2019-01-10T08:41:19.264Z,16.20
2019-01-10T08:42:19.256Z,9.60
2019-01-10T08:43:19.365Z,7.60
2019-01-10T08:44:19.237Z,7.60
2019-01-10T08:45:21.929Z,8.00
2019-01-10T08:46:19.271Z,8.90
2019-01-10T08:47:19.202Z,8.00
2019-01-10T08:48:19.260Z,11.10
2019-01-10T08:49:19.270Z,11.70
2019-01-10T08:50:19.251Z,11.80
2019-01-10T08:51:22.081Z,15.40
2019-01-10T08:52:19.213Z,12.30
2019-01-10T08:53:21.682Z,9.60
2019-01-10T08:54:19.199Z,9.80
2019-01-10T08:55:19.244Z,11.90
2019-01-10T08:56:19.188Z,11.60
2019-01-10T08:57:19.147Z,11.20
2019-01-10T08:58:19.127Z,7.60
2019-01-10T08:59:19.131Z,12.80
2019-01-10T09:00:19.138Z,5.30
2019-01-10T09:01:19.105Z,9.20
2019-01-10T09:02:19.134Z,13.20
2019-01-10T09:03:19.065Z,9.30
2019-01-10T09:04:19.105Z,6.80
2019-01-10T09:05:19.067Z,12.10
2019-01-10T09:06:19.431Z,8.70
2019-01-10T09:07:19.048Z,8.10
2019-01-10T09:08:20.276Z,8.60
2019-01-10T09:09:19.071Z,7.60
2019-01-10T09:10:22.532Z,9.00
2019-01-10T09:11:19.001Z,9.00
2019-01-10T09:12:22.994Z,9.90
2019-01-10T09:13:22.020Z,7.30
2019-01-10T09:14:18.983Z,6.30
2019-01-10T09:15:25.310Z,8.20
2019-01-10T09:16:19.003Z,8.60
2019-01-10T09:17:18.996Z,7.70
2019-01-10T09:18:18.925Z,8.50
2019-01-10T09:19:19.943Z,7.20
2019-01-10T09:20:21.971Z,9.30
2019-01-10T09:21:18.905Z,7.70
2019-01-10T09:22:19.928Z,7.60
2019-01-10T09:23:18.854Z,9.90
2019-01-10T09:24:18.812Z,7.40
2019-01-10T09:25:18.849Z,10.80
2019-01-10T09:26:18.800Z,6.30
2019-01-10T09:27:18.830Z,6.10
2019-01-10T09:28:18.752Z,7.70
2019-01-10T09:29:18.782Z,8.30
2019-01-10T09:30:18.749Z,7.60
2019-01-10T09:31:18.717Z,6.50
2019-01-10T09:32:19.025Z,9.50
2019-01-10T09:33:18.712Z,7.80
2019-01-10T09:34:24.614Z,5.60
2019-01-10T09:35:18.662Z,5.70
2019-01-10T09:36:18.698Z,5.50
2019-01-10T09:37:18.637Z,4.90
2019-01-10T09:38:18.672Z,6.00
2019-01-10T09:39:18.719Z,7.70
2019-01-10T09:40:18.621Z,11.40
2019-01-10T09:41:18.612Z,6.10
2019-01-10T09:42:18.610Z,7.90
2019-01-10T09:43:18.592Z,6.40
2019-01-10T09:44:18.646Z,6.70
2019-01-10T09:45:18.579Z,7.30
2019-01-10T09:46:20.699Z,6.10
2019-01-10T09:47:18.585Z,8.00
2019-01-10T09:48:23.045Z,6.20
2019-01-10T09:49:18.529Z,5.50
2019-01-10T09:50:18.506Z,8.70
2019-01-10T09:51:18.500Z,7.50
2019-01-10T09:52:19.092Z,5.40
2019-01-10T09:53:18.954Z,6.90
2019-01-10T09:54:18.481Z,6.30
2019-01-10T09:55:19.232Z,4.80
2019-01-10T09:56:19.334Z,7.50
2019-01-10T09:57:18.421Z,7.00
2019-01-10T09:58:18.471Z,3.70
2019-01-10T09:59:18.561Z,8.20
2019-01-10T10:00:18.422Z,5.20
2019-01-10T10:01:18.481Z,7.40
2019-01-10T10:02:18.408Z,7.40
2019-01-10T10:03:18.357Z,4.00
2019-01-10T10:04:18.622Z,7.80
2019-01-10T10:05:18.328Z,5.30
2019-01-10T10:06:18.336Z,7.30
2019-01-10T10:07:18.322Z,4.20
2019-01-10T10:08:18.298Z,7.30
2019-01-10T10:09:18.311Z,7.70
2019-01-10T10:10:18.288Z,4.30
2019-01-10T10:11:18.431Z,6.60
2019-01-10T10:12:18.267Z,5.70
2019-01-10T10:13:18.239Z,4.50
2019-01-10T10:14:18.243Z,5.80
2019-01-10T10:15:18.359Z,4.30
2019-01-10T10:16:18.200Z,5.80
2019-01-10T10:17:18.199Z,5.00
2019-01-10T10:18:18.189Z,5.00
2019-01-10T10:19:18.180Z,7.10
2019-01-10T10:20:18.164Z,5.00
2019-01-10T10:21:19.098Z,6.80
2019-01-10T10:22:18.137Z,4.30
2019-01-10T10:23:26.832Z,5.80
2019-01-10T10:24:18.127Z,5.60
2019-01-10T10:25:18.138Z,9.30
2019-01-10T10:26:18.102Z,5.90
2019-01-10T10:27:18.102Z,6.60
2019-01-10T10:28:18.090Z,8.40
2019-01-10T10:29:18.068Z,7.20
2019-01-10T10:30:19.246Z,5.20
2019-01-10T10:31:18.052Z,6.00
2019-01-10T10:32:18.023Z,6.60
2019-01-10T10:33:18.022Z,7.90
2019-01-10T10:34:19.148Z,5.10
2019-01-10T10:35:18.136Z,4.20
2019-01-10T10:36:18.058Z,11.40
2019-01-10T10:37:17.971Z,7.80
2019-01-10T10:38:17.965Z,8.10
2019-01-10T10:39:17.973Z,13.30
2019-01-10T10:40:17.935Z,5.50
2019-01-10T10:41:18.949Z,11.30
2019-01-10T10:42:17.911Z,6.10
2019-01-10T10:43:17.898Z,8.80
2019-01-10T10:44:21.349Z,7.50
2019-01-10T10:45:17.887Z,6.00
2019-01-10T10:46:17.878Z,7.60
2019-01-10T10:47:17.929Z,9.10
2019-01-10T10:48:17.866Z,6.70
2019-01-10T10:49:17.883Z,7.60
2019-01-10T10:50:17.819Z,8.90
2019-01-10T10:51:17.803Z,11.00
2019-01-10T10:52:17.865Z,11.70
2019-01-10T10:53:17.778Z,6.60
2019-01-10T10:54:17.800Z,9.60
2019-01-10T10:55:17.777Z,6.10
2019-01-10T10:56:17.764Z,8.00
2019-01-10T10:57:17.808Z,6.10
2019-01-10T10:58:17.750Z,7.10
2019-01-10T10:59:17.792Z,5.60
2019-01-10T11:00:17.802Z,8.30
2019-01-10T11:01:17.706Z,6.70
2019-01-10T11:02:17.757Z,5.90
2019-01-10T11:03:17.679Z,7.50
2019-01-10T11:04:19.675Z,11.20
2019-01-10T11:05:17.905Z,8.40
2019-01-10T11:06:17.639Z,8.80
2019-01-10T11:07:17.630Z,5.50
2019-01-10T11:08:17.702Z,7.90
2019-01-10T11:09:17.640Z,6.20
2019-01-10T11:10:17.947Z,8.30
2019-01-10T11:11:17.620Z,8.30
2019-01-10T11:12:17.577Z,6.70
2019-01-10T11:13:17.602Z,8.00
2019-01-10T11:14:17.570Z,5.70
2019-01-10T11:15:17.556Z,7.20
2019-01-10T11:16:23.404Z,6.30
2019-01-10T11:17:17.550Z,5.70
2019-01-10T11:18:18.155Z,7.20
2019-01-10T11:19:18.467Z,4.50
2019-01-10T11:20:17.515Z,7.50
2019-01-10T11:21:17.478Z,7.10
2019-01-10T11:22:17.459Z,9.50
2019-01-10T11:23:17.515Z,8.00
2019-01-10T11:24:17.517Z,7.00
2019-01-10T11:25:17.443Z,8.90
2019-01-10T11:26:18.466Z,4.20
2019-01-10T11:27:17.457Z,9.00
2019-01-10T11:28:17.406Z,6.80
2019-01-10T11:29:17.444Z,5.20
2019-01-10T11:30:17.393Z,4.20
2019-01-10T11:31:17.415Z,5.00
2019-01-10T11:32:17.379Z,6.30
2019-01-10T11:33:17.324Z,7.10
2019-01-10T11:34:17.319Z,7.00
2019-01-10T11:35:17.371Z,7.70
2019-01-10T11:36:17.319Z,6.70
2019-01-10T11:37:17.319Z,8.20
2019-01-10T11:38:17.291Z,6.60
2019-01-10T11:39:17.276Z,6.50
2019-01-10T11:40:17.274Z,6.30
2019-01-10T11:41:17.284Z,7.70
2019-01-10T11:42:17.241Z,6.70
2019-01-10T11:43:17.250Z,5.90
2019-01-10T11:44:18.895Z,6.80
2019-01-10T11:45:17.217Z,7.20
2019-01-10T11:46:19.638Z,7.20
2019-01-10T11:47:17.184Z,7.90
2019-01-10T11:48:17.255Z,8.50
2019-01-10T11:49:17.188Z,8.40
2019-01-10T11:50:17.315Z,5.50
2019-01-10T11:51:17.178Z,6.80
2019-01-10T11:52:17.121Z,7.30
2019-01-10T11:53:17.129Z,6.00
2019-01-10T11:54:17.103Z,8.30
2019-01-10T11:55:17.166Z,8.60
2019-01-10T11:56:17.097Z,4.60
2019-01-10T11:57:17.455Z,11.90
2019-01-10T11:58:17.052Z,5.20
2019-01-10T11:59:17.090Z,7.80
2019-01-10T12:00:17.061Z,4.30
2019-01-10T12:01:17.036Z,7.00
2019-01-10T12:02:17.008Z,6.00
2019-01-10T12:03:16.992Z,6.40
2019-01-10T12:04:17.030Z,7.40
2019-01-10T12:05:16.986Z,8.70
2019-01-10T12:06:16.972Z,8.80
2019-01-10T12:07:16.980Z,8.10
2019-01-10T12:08:18.067Z,5.10
2019-01-10T12:09:17.097Z,8.20
2019-01-10T12:10:16.947Z,6.10
2019-01-10T12:11:16.921Z,5.30
2019-01-10T12:12:16.907Z,4.80
2019-01-10T12:13:17.736Z,6.50
2019-01-10T12:14:16.869Z,6.70
2019-01-10T12:15:17.813Z,5.40
2019-01-10T12:16:17.634Z,7.90
2019-01-10T12:17:18.190Z,6.10
2019-01-10T12:18:16.818Z,5.30
2019-01-10T12:19:16.905Z,6.00
2019-01-10T12:20:16.877Z,5.60
2019-01-10T12:21:16.854Z,5.60
2019-01-10T12:22:16.800Z,5.40
2019-01-10T12:23:16.964Z,6.80
2019-01-10T12:24:16.771Z,5.40
2019-01-10T12:25:16.738Z,6.80
2019-01-10T12:26:16.775Z,6.60
2019-01-10T12:27:23.589Z,5.60
2019-01-10T12:28:16.982Z,5.80
2019-01-10T12:29:16.725Z,4.30
2019-01-10T12:30:16.685Z,5.80
2019-01-10T12:31:16.702Z,7.20
2019-01-10T12:32:16.978Z,8.20
2019-01-10T12:33:16.663Z,9.30
2019-01-10T12:34:16.663Z,7.90
2019-01-10T12:35:16.639Z,7.10
2019-01-10T12:36:16.704Z,5.90
2019-01-10T12:37:16.617Z,7.20
2019-01-10T12:38:16.688Z,9.30
2019-01-10T12:39:16.673Z,5.50
2019-01-10T12:40:16.581Z,5.90
2019-01-10T12:41:16.593Z,9.40
2019-01-10T12:42:16.569Z,8.10
2019-01-10T12:43:16.550Z,8.70
2019-01-10T12:44:16.529Z,8.40
2019-01-10T12:45:17.314Z,11.30
2019-01-10T12:46:16.738Z,7.60
2019-01-10T12:47:16.503Z,10.40
2019-01-10T12:48:16.523Z,6.60
2019-01-10T12:49:16.499Z,6.50
2019-01-10T12:50:16.552Z,6.30
2019-01-10T12:51:16.495Z,7.50
2019-01-10T12:52:17.343Z,5.30
2019-01-10T12:53:16.514Z,11.00
2019-01-10T12:54:16.432Z,8.20
2019-01-10T12:55:16.671Z,6.00
2019-01-10T12:56:18.481Z,7.20
2019-01-10T12:57:16.413Z,5.80
2019-01-10T12:58:16.372Z,7.00
2019-01-10T12:59:16.366Z,9.20
2019-01-10T13:00:16.371Z,7.70
2019-01-10T13:01:16.359Z,10.00
2019-01-10T13:02:16.325Z,8.30
2019-01-10T13:03:16.372Z,6.10
2019-01-10T13:04:16.382Z,7.30
2019-01-10T13:05:16.314Z,7.20
2019-01-10T13:06:16.301Z,7.50
2019-01-10T13:07:16.280Z,6.80
2019-01-10T13:08:16.279Z,8.30
2019-01-10T13:09:16.246Z,4.30
2019-01-10T13:10:16.285Z,10.70
2019-01-10T13:11:16.260Z,6.10
2019-01-10T13:12:16.241Z,4.60
2019-01-10T13:13:16.262Z,7.80
2019-01-10T13:14:16.324Z,9.20
2019-01-10T13:15:16.368Z,7.70
2019-01-10T13:16:16.193Z,8.40
2019-01-10T13:17:16.161Z,6.20